KPVG Airport Information

Runway Information
Runway 02 Length 3524 ft width 70 ft
Elevation 21 ft Threshold 510 ft Heading 9
Runway 20 Length 3524 ft Width 70 ft
Elevation 20 ft Threshold 440 ft Heading 189
Runway 10 Length 4056 ft width 70 ft
Elevation 20 ft Threshold 0 ft Heading 92
Runway 28 Length 4056 ft Width 70 ft
Elevation 16 ft Threshold 200 ft Heading 272
Airport Frequencies
Type A/D Name NORFOLK AP Frequency 118.9 MHZ
Type AWOS Name AWOS 3 Frequency 118.375 MHZ
Type UNIC Name CTAF/UNICO Frequency 123 MHZ
Airport Navaids
Airport Weather Information & NOTAM
ADDS - METARS form results

(0633 UTC 22 January 2021)
Data provider http://aviationweather.gov/metar/data/
 
METAR text: KPVG 220556Z AUTO 26003KT 10SM CLR 04/M01 A2978 RMK AO2 SLP085 6//// T00391011 10044 21017 50006 PNO $
Conditions at: KPVG (NORFOLK/HAMPTON , VA, US) observed 0556 UTC 22 January 2021
Temperature: 3.9°C (39°F)
Dewpoint: -1.1°C (30°F) [RH = 70%]
Pressure (altimeter): 29.78 inches Hg (1008.5 mb)
[Sea-level pressure: 1008.5 mb]
Winds: from the W (260 degrees) at 3 MPH (3 knots; 1.5 m/s)
Visibility: 10 or more miles (16+ km)
Ceiling: at least 12,000 feet AGL
Clouds: sky clear below 12,000 feet AGL
Weather:
SOME DATA ABOVE MAY BE INACCURATE!!!
"$" is an indication the sensor requires maintenance